sensor_id;sensor_type;location;lat;lon;timestamp;P1;durP1;ratioP1;P2;durP2;ratioP2
21727;SDS011;11026;50.560;17.852;2023-05-19T00:01:46;11.68;;;8.20;;
21727;SDS011;11026;50.560;17.852;2023-05-19T00:04:14;10.93;;;7.82;;
21727;SDS011;11026;50.560;17.852;2023-05-19T00:06:42;12.25;;;7.32;;
21727;SDS011;11026;50.560;17.852;2023-05-19T00:09:14;12.40;;;6.95;;
21727;SDS011;11026;50.560;17.852;2023-05-19T00:11:42;10.55;;;6.97;;
21727;SDS011;11026;50.560;17.852;2023-05-19T00:14:10;9.98;;;6.25;;
21727;SDS011;11026;50.560;17.852;2023-05-19T00:16:38;11.45;;;6.47;;
21727;SDS011;11026;50.560;17.852;2023-05-19T00:19:06;8.82;;;6.75;;
21727;SDS011;11026;50.560;17.852;2023-05-19T00:21:37;8.35;;;6.00;;
21727;SDS011;11026;50.560;17.852;2023-05-19T00:24:05;7.82;;;6.20;;
21727;SDS011;11026;50.560;17.852;2023-05-19T00:26:33;10.25;;;5.65;;
21727;SDS011;11026;50.560;17.852;2023-05-19T00:29:00;8.02;;;5.68;;
21727;SDS011;11026;50.560;17.852;2023-05-19T00:31:28;10.40;;;5.57;;
21727;SDS011;11026;50.560;17.852;2023-05-19T00:33:58;6.93;;;5.13;;
21727;SDS011;11026;50.560;17.852;2023-05-19T00:36:26;8.73;;;5.57;;
21727;SDS011;11026;50.560;17.852;2023-05-19T00:38:54;9.00;;;5.75;;
21727;SDS011;11026;50.560;17.852;2023-05-19T00:41:23;7.88;;;5.82;;
21727;SDS011;11026;50.560;17.852;2023-05-19T00:43:59;7.95;;;5.22;;
21727;SDS011;11026;50.560;17.852;2023-05-19T00:46:26;7.60;;;5.20;;
21727;SDS011;11026;50.560;17.852;2023-05-19T00:48:54;7.63;;;5.13;;
21727;SDS011;11026;50.560;17.852;2023-05-19T00:51:24;10.52;;;5.72;;
21727;SDS011;11026;50.560;17.852;2023-05-19T00:53:53;7.20;;;5.03;;
21727;SDS011;11026;50.560;17.852;2023-05-19T00:56:21;6.13;;;4.65;;
21727;SDS011;11026;50.560;17.852;2023-05-19T00:58:49;8.15;;;5.45;;
21727;SDS011;11026;50.560;17.852;2023-05-19T01:01:17;8.85;;;5.03;;
21727;SDS011;11026;50.560;17.852;2023-05-19T01:03:51;9.85;;;5.43;;
21727;SDS011;11026;50.560;17.852;2023-05-19T01:06:18;8.40;;;5.53;;
21727;SDS011;11026;50.560;17.852;2023-05-19T01:08:46;7.93;;;4.68;;
21727;SDS011;11026;50.560;17.852;2023-05-19T01:11:14;7.35;;;5.10;;
21727;SDS011;11026;50.560;17.852;2023-05-19T01:13:41;8.15;;;4.60;;
21727;SDS011;11026;50.560;17.852;2023-05-19T01:28:04;6.05;;;4.35;;
21727;SDS011;11026;50.560;17.852;2023-05-19T01:30:53;5.85;;;4.22;;
21727;SDS011;11026;50.560;17.852;2023-05-19T01:33:29;5.95;;;4.05;;
21727;SDS011;11026;50.560;17.852;2023-05-19T01:35:59;5.47;;;4.00;;
21727;SDS011;11026;50.560;17.852;2023-05-19T01:38:29;7.30;;;4.10;;
21727;SDS011;11026;50.560;17.852;2023-05-19T01:41:01;7.30;;;4.18;;
21727;SDS011;11026;50.560;17.852;2023-05-19T01:43:30;5.60;;;3.83;;
21727;SDS011;11026;50.560;17.852;2023-05-19T01:45:59;7.03;;;3.90;;
21727;SDS011;11026;50.560;17.852;2023-05-19T01:48:28;7.10;;;3.92;;
21727;SDS011;11026;50.560;17.852;2023-05-19T01:50:57;5.43;;;3.88;;
21727;SDS011;11026;50.560;17.852;2023-05-19T01:53:26;6.25;;;4.45;;
21727;SDS011;11026;50.560;17.852;2023-05-19T01:55:54;5.20;;;4.13;;
21727;SDS011;11026;50.560;17.852;2023-05-19T02:01:27;6.95;;;3.90;;
21727;SDS011;11026;50.560;17.852;2023-05-19T02:04:18;6.20;;;4.13;;
21727;SDS011;11026;50.560;17.852;2023-05-19T02:12:33;4.15;;;3.70;;
21727;SDS011;11026;50.560;17.852;2023-05-19T02:15:25;5.38;;;4.00;;
21727;SDS011;11026;50.560;17.852;2023-05-19T02:17:53;4.78;;;3.50;;
21727;SDS011;11026;50.560;17.852;2023-05-19T02:20:22;6.20;;;4.20;;
21727;SDS011;11026;50.560;17.852;2023-05-19T02:22:49;4.90;;;3.75;;
21727;SDS011;11026;50.560;17.852;2023-05-19T02:25:17;7.40;;;4.30;;
21727;SDS011;11026;50.560;17.852;2023-05-19T02:27:46;6.07;;;4.45;;
21727;SDS011;11026;50.560;17.852;2023-05-19T02:30:15;9.27;;;6.20;;
21727;SDS011;11026;50.560;17.852;2023-05-19T02:32:42;9.07;;;5.40;;
21727;SDS011;11026;50.560;17.852;2023-05-19T02:35:13;8.32;;;5.28;;
21727;SDS011;11026;50.560;17.852;2023-05-19T02:37:40;8.77;;;6.88;;
21727;SDS011;11026;50.560;17.852;2023-05-19T02:40:09;8.38;;;6.65;;
21727;SDS011;11026;50.560;17.852;2023-05-19T02:42:36;12.68;;;7.00;;
21727;SDS011;11026;50.560;17.852;2023-05-19T02:45:04;11.77;;;7.72;;
21727;SDS011;11026;50.560;17.852;2023-05-19T02:47:34;11.02;;;8.63;;
21727;SDS011;11026;50.560;17.852;2023-05-19T02:52:35;12.17;;;7.60;;
21727;SDS011;11026;50.560;17.852;2023-05-19T02:55:02;16.38;;;12.23;;
21727;SDS011;11026;50.560;17.852;2023-05-19T02:57:31;13.02;;;8.98;;
21727;SDS011;11026;50.560;17.852;2023-05-19T03:00:00;9.90;;;6.72;;
21727;SDS011;11026;50.560;17.852;2023-05-19T03:02:27;10.45;;;7.50;;
21727;SDS011;11026;50.560;17.852;2023-05-19T03:04:55;10.25;;;6.80;;
21727;SDS011;11026;50.560;17.852;2023-05-19T03:07:22;10.45;;;6.57;;
21727;SDS011;11026;50.560;17.852;2023-05-19T03:09:51;8.48;;;6.10;;
21727;SDS011;11026;50.560;17.852;2023-05-19T03:12:18;8.98;;;6.07;;
21727;SDS011;11026;50.560;17.852;2023-05-19T03:14:46;9.88;;;6.00;;
21727;SDS011;11026;50.560;17.852;2023-05-19T03:17:14;8.00;;;5.95;;
21727;SDS011;11026;50.560;17.852;2023-05-19T03:19:42;11.15;;;5.95;;
21727;SDS011;11026;50.560;17.852;2023-05-19T03:22:10;10.75;;;6.28;;
21727;SDS011;11026;50.560;17.852;2023-05-19T03:24:44;8.13;;;5.95;;
21727;SDS011;11026;50.560;17.852;2023-05-19T03:27:11;9.43;;;6.30;;
21727;SDS011;11026;50.560;17.852;2023-05-19T03:29:39;11.02;;;6.60;;
21727;SDS011;11026;50.560;17.852;2023-05-19T03:32:06;9.38;;;6.55;;
21727;SDS011;11026;50.560;17.852;2023-05-19T03:34:34;12.60;;;6.82;;
21727;SDS011;11026;50.560;17.852;2023-05-19T03:37:01;13.20;;;7.38;;
21727;SDS011;11026;50.560;17.852;2023-05-19T03:39:28;12.07;;;6.68;;
21727;SDS011;11026;50.560;17.852;2023-05-19T03:41:56;9.48;;;6.13;;
21727;SDS011;11026;50.560;17.852;2023-05-19T03:44:24;10.43;;;6.43;;
21727;SDS011;11026;50.560;17.852;2023-05-19T03:46:51;10.55;;;6.45;;
21727;SDS011;11026;50.560;17.852;2023-05-19T03:49:19;8.25;;;6.43;;
21727;SDS011;11026;50.560;17.852;2023-05-19T03:51:46;10.05;;;6.35;;
21727;SDS011;11026;50.560;17.852;2023-05-19T03:54:16;9.68;;;6.35;;
21727;SDS011;11026;50.560;17.852;2023-05-19T03:56:43;9.85;;;6.28;;
21727;SDS011;11026;50.560;17.852;2023-05-19T03:59:13;15.30;;;10.43;;
21727;SDS011;11026;50.560;17.852;2023-05-19T04:01:42;17.13;;;10.52;;
21727;SDS011;11026;50.560;17.852;2023-05-19T04:04:14;17.40;;;12.50;;
21727;SDS011;11026;50.560;17.852;2023-05-19T04:06:41;20.75;;;13.15;;
21727;SDS011;11026;50.560;17.852;2023-05-19T04:09:12;23.05;;;15.07;;
21727;SDS011;11026;50.560;17.852;2023-05-19T04:11:41;21.48;;;12.88;;
21727;SDS011;11026;50.560;17.852;2023-05-19T04:14:09;15.52;;;11.55;;
21727;SDS011;11026;50.560;17.852;2023-05-19T04:16:42;15.23;;;10.00;;
21727;SDS011;11026;50.560;17.852;2023-05-19T04:19:10;12.25;;;9.73;;
21727;SDS011;11026;50.560;17.852;2023-05-19T04:21:38;12.13;;;8.70;;
21727;SDS011;11026;50.560;17.852;2023-05-19T04:24:05;11.57;;;7.97;;
21727;SDS011;11026;50.560;17.852;2023-05-19T04:26:33;12.27;;;8.05;;
21727;SDS011;11026;50.560;17.852;2023-05-19T04:29:01;11.13;;;8.40;;
21727;SDS011;11026;50.560;17.852;2023-05-19T04:31:30;15.13;;;9.82;;
21727;SDS011;11026;50.560;17.852;2023-05-19T04:33:57;12.95;;;8.23;;
21727;SDS011;11026;50.560;17.852;2023-05-19T04:36:27;13.20;;;8.82;;
21727;SDS011;11026;50.560;17.852;2023-05-19T04:38:54;10.63;;;7.65;;
21727;SDS011;11026;50.560;17.852;2023-05-19T04:41:28;10.10;;;7.10;;
21727;SDS011;11026;50.560;17.852;2023-05-19T04:43:55;11.75;;;7.38;;
21727;SDS011;11026;50.560;17.852;2023-05-19T04:46:23;12.40;;;8.80;;
21727;SDS011;11026;50.560;17.852;2023-05-19T04:48:57;11.90;;;7.80;;
21727;SDS011;11026;50.560;17.852;2023-05-19T04:51:27;10.40;;;6.80;;
21727;SDS011;11026;50.560;17.852;2023-05-19T04:53:57;11.68;;;7.57;;
21727;SDS011;11026;50.560;17.852;2023-05-19T04:56:24;11.32;;;7.90;;
21727;SDS011;11026;50.560;17.852;2023-05-19T04:58:53;11.82;;;7.90;;
21727;SDS011;11026;50.560;17.852;2023-05-19T05:01:21;12.23;;;7.55;;
21727;SDS011;11026;50.560;17.852;2023-05-19T05:03:53;14.35;;;7.82;;
21727;SDS011;11026;50.560;17.852;2023-05-19T05:06:21;13.25;;;8.80;;
21727;SDS011;11026;50.560;17.852;2023-05-19T05:08:50;12.85;;;7.53;;
21727;SDS011;11026;50.560;17.852;2023-05-19T05:11:18;11.25;;;7.22;;
21727;SDS011;11026;50.560;17.852;2023-05-19T05:13:47;8.10;;;6.28;;
21727;SDS011;11026;50.560;17.852;2023-05-19T05:16:14;8.63;;;6.22;;
21727;SDS011;11026;50.560;17.852;2023-05-19T05:18:42;11.88;;;8.65;;
21727;SDS011;11026;50.560;17.852;2023-05-19T05:21:10;11.13;;;7.25;;
21727;SDS011;11026;50.560;17.852;2023-05-19T05:23:38;8.75;;;6.72;;
21727;SDS011;11026;50.560;17.852;2023-05-19T05:26:08;8.50;;;6.18;;
21727;SDS011;11026;50.560;17.852;2023-05-19T05:28:40;12.95;;;7.93;;
21727;SDS011;11026;50.560;17.852;2023-05-19T05:31:07;12.82;;;8.65;;
21727;SDS011;11026;50.560;17.852;2023-05-19T05:33:35;11.95;;;6.43;;
21727;SDS011;11026;50.560;17.852;2023-05-19T05:36:04;8.57;;;6.32;;
21727;SDS011;11026;50.560;17.852;2023-05-19T05:38:32;7.95;;;5.93;;
21727;SDS011;11026;50.560;17.852;2023-05-19T05:41:01;8.65;;;5.28;;
21727;SDS011;11026;50.560;17.852;2023-05-19T05:43:29;7.70;;;5.22;;
21727;SDS011;11026;50.560;17.852;2023-05-19T05:45:57;9.32;;;6.03;;
21727;SDS011;11026;50.560;17.852;2023-05-19T05:48:24;8.82;;;6.75;;
21727;SDS011;11026;50.560;17.852;2023-05-19T05:50:52;10.98;;;7.38;;
21727;SDS011;11026;50.560;17.852;2023-05-19T05:53:20;8.32;;;6.72;;
21727;SDS011;11026;50.560;17.852;2023-05-19T05:55:50;8.35;;;6.53;;
21727;SDS011;11026;50.560;17.852;2023-05-19T05:58:19;8.38;;;5.55;;
21727;SDS011;11026;50.560;17.852;2023-05-19T06:00:47;6.68;;;5.78;;
21727;SDS011;11026;50.560;17.852;2023-05-19T06:03:14;8.55;;;6.50;;
21727;SDS011;11026;50.560;17.852;2023-05-19T06:05:42;10.15;;;7.20;;
21727;SDS011;11026;50.560;17.852;2023-05-19T06:08:10;8.80;;;6.55;;
21727;SDS011;11026;50.560;17.852;2023-05-19T06:10:37;7.18;;;5.13;;
21727;SDS011;11026;50.560;17.852;2023-05-19T06:13:07;8.00;;;5.72;;
21727;SDS011;11026;50.560;17.852;2023-05-19T06:15:35;10.48;;;7.07;;
21727;SDS011;11026;50.560;17.852;2023-05-19T06:18:08;8.45;;;6.22;;
21727;SDS011;11026;50.560;17.852;2023-05-19T06:23:04;9.82;;;7.03;;
21727;SDS011;11026;50.560;17.852;2023-05-19T06:25:31;8.50;;;6.90;;
21727;SDS011;11026;50.560;17.852;2023-05-19T06:27:59;9.35;;;6.65;;
21727;SDS011;11026;50.560;17.852;2023-05-19T06:30:26;12.98;;;7.38;;
21727;SDS011;11026;50.560;17.852;2023-05-19T06:32:54;9.05;;;5.85;;
21727;SDS011;11026;50.560;17.852;2023-05-19T06:35:22;8.18;;;6.43;;
21727;SDS011;11026;50.560;17.852;2023-05-19T06:37:50;15.82;;;11.43;;
21727;SDS011;11026;50.560;17.852;2023-05-19T06:40:19;10.85;;;7.40;;
21727;SDS011;11026;50.560;17.852;2023-05-19T06:42:47;8.57;;;6.03;;
21727;SDS011;11026;50.560;17.852;2023-05-19T06:48:03;9.05;;;6.05;;
21727;SDS011;11026;50.560;17.852;2023-05-19T06:50:30;10.55;;;6.53;;
21727;SDS011;11026;50.560;17.852;2023-05-19T06:52:58;9.02;;;6.47;;
21727;SDS011;11026;50.560;17.852;2023-05-19T06:55:25;7.43;;;5.57;;
21727;SDS011;11026;50.560;17.852;2023-05-19T06:57:53;12.77;;;7.40;;
21727;SDS011;11026;50.560;17.852;2023-05-19T07:00:33;14.30;;;9.43;;
21727;SDS011;11026;50.560;17.852;2023-05-19T07:03:00;14.65;;;10.25;;
21727;SDS011;11026;50.560;17.852;2023-05-19T07:05:27;12.35;;;7.93;;
21727;SDS011;11026;50.560;17.852;2023-05-19T07:07:55;9.93;;;6.53;;
21727;SDS011;11026;50.560;17.852;2023-05-19T07:10:22;10.50;;;6.57;;
21727;SDS011;11026;50.560;17.852;2023-05-19T07:12:50;12.82;;;7.00;;
21727;SDS011;11026;50.560;17.852;2023-05-19T07:15:17;10.18;;;6.28;;
21727;SDS011;11026;50.560;17.852;2023-05-19T07:17:45;6.57;;;5.28;;
21727;SDS011;11026;50.560;17.852;2023-05-19T07:20:12;7.97;;;5.40;;
21727;SDS011;11026;50.560;17.852;2023-05-19T07:22:40;7.38;;;5.20;;
21727;SDS011;11026;50.560;17.852;2023-05-19T07:25:07;10.15;;;6.18;;
21727;SDS011;11026;50.560;17.852;2023-05-19T07:27:35;10.13;;;5.65;;
21727;SDS011;11026;50.560;17.852;2023-05-19T07:30:03;8.13;;;5.50;;
21727;SDS011;11026;50.560;17.852;2023-05-19T07:32:30;7.25;;;5.28;;
21727;SDS011;11026;50.560;17.852;2023-05-19T07:34:58;7.18;;;6.32;;
21727;SDS011;11026;50.560;17.852;2023-05-19T07:37:25;7.75;;;6.10;;
21727;SDS011;11026;50.560;17.852;2023-05-19T07:39:52;8.27;;;7.35;;
21727;SDS011;11026;50.560;17.852;2023-05-19T07:42:20;6.07;;;5.47;;
21727;SDS011;11026;50.560;17.852;2023-05-19T07:44:48;9.35;;;6.03;;
21727;SDS011;11026;50.560;17.852;2023-05-19T07:47:16;9.90;;;6.25;;
21727;SDS011;11026;50.560;17.852;2023-05-19T07:49:43;10.95;;;7.20;;
21727;SDS011;11026;50.560;17.852;2023-05-19T07:52:12;9.57;;;5.93;;
21727;SDS011;11026;50.560;17.852;2023-05-19T07:54:39;10.05;;;5.88;;
21727;SDS011;11026;50.560;17.852;2023-05-19T07:57:07;10.43;;;6.60;;
21727;SDS011;11026;50.560;17.852;2023-05-19T07:59:34;9.20;;;5.82;;
21727;SDS011;11026;50.560;17.852;2023-05-19T08:02:02;9.63;;;6.35;;
21727;SDS011;11026;50.560;17.852;2023-05-19T08:04:30;9.80;;;5.70;;
21727;SDS011;11026;50.560;17.852;2023-05-19T08:06:59;11.88;;;5.95;;
21727;SDS011;11026;50.560;17.852;2023-05-19T08:09:26;9.18;;;5.85;;
21727;SDS011;11026;50.560;17.852;2023-05-19T08:11:53;8.88;;;5.72;;
21727;SDS011;11026;50.560;17.852;2023-05-19T08:14:21;8.65;;;5.35;;
21727;SDS011;11026;50.560;17.852;2023-05-19T08:16:48;10.73;;;5.88;;
21727;SDS011;11026;50.560;17.852;2023-05-19T08:19:16;7.13;;;5.38;;
21727;SDS011;11026;50.560;17.852;2023-05-19T08:21:43;7.97;;;6.15;;
21727;SDS011;11026;50.560;17.852;2023-05-19T08:24:11;8.15;;;5.78;;
21727;SDS011;11026;50.560;17.852;2023-05-19T08:26:38;8.88;;;5.18;;
21727;SDS011;11026;50.560;17.852;2023-05-19T08:29:06;8.55;;;5.28;;
21727;SDS011;11026;50.560;17.852;2023-05-19T08:31:33;8.98;;;6.03;;
21727;SDS011;11026;50.560;17.852;2023-05-19T08:34:00;8.57;;;5.90;;
21727;SDS011;11026;50.560;17.852;2023-05-19T08:36:27;9.95;;;5.82;;
21727;SDS011;11026;50.560;17.852;2023-05-19T08:38:56;10.52;;;6.28;;
21727;SDS011;11026;50.560;17.852;2023-05-19T08:41:25;10.70;;;6.50;;
21727;SDS011;11026;50.560;17.852;2023-05-19T08:43:53;7.90;;;5.82;;
21727;SDS011;11026;50.560;17.852;2023-05-19T08:46:21;11.77;;;5.88;;
21727;SDS011;11026;50.560;17.852;2023-05-19T08:48:53;9.57;;;6.22;;
21727;SDS011;11026;50.560;17.852;2023-05-19T08:53:59;10.55;;;5.93;;
21727;SDS011;11026;50.560;17.852;2023-05-19T08:56:35;8.30;;;5.78;;
21727;SDS011;11026;50.560;17.852;2023-05-19T08:59:04;8.50;;;6.10;;
21727;SDS011;11026;50.560;17.852;2023-05-19T09:04:05;8.90;;;6.30;;
21727;SDS011;11026;50.560;17.852;2023-05-19T09:06:39;8.18;;;6.07;;
21727;SDS011;11026;50.560;17.852;2023-05-19T09:11:53;9.68;;;6.28;;
21727;SDS011;11026;50.560;17.852;2023-05-19T09:14:20;7.28;;;6.03;;
21727;SDS011;11026;50.560;17.852;2023-05-19T09:16:48;7.40;;;6.18;;
21727;SDS011;11026;50.560;17.852;2023-05-19T09:19:18;7.40;;;6.03;;
21727;SDS011;11026;50.560;17.852;2023-05-19T09:21:56;8.40;;;6.03;;
21727;SDS011;11026;50.560;17.852;2023-05-19T09:24:26;7.20;;;6.03;;
21727;SDS011;11026;50.560;17.852;2023-05-19T09:26:55;7.32;;;6.15;;
21727;SDS011;11026;50.560;17.852;2023-05-19T09:29:27;7.40;;;5.88;;
21727;SDS011;11026;50.560;17.852;2023-05-19T09:31:55;8.85;;;6.60;;
21727;SDS011;11026;50.560;17.852;2023-05-19T09:34:31;9.73;;;6.22;;
21727;SDS011;11026;50.560;17.852;2023-05-19T09:36:59;7.28;;;6.13;;
21727;SDS011;11026;50.560;17.852;2023-05-19T09:39:27;7.30;;;6.20;;
21727;SDS011;11026;50.560;17.852;2023-05-19T09:41:57;8.45;;;6.50;;
21727;SDS011;11026;50.560;17.852;2023-05-19T09:44:26;10.55;;;8.80;;
21727;SDS011;11026;50.560;17.852;2023-05-19T09:46:57;8.35;;;6.63;;
21727;SDS011;11026;50.560;17.852;2023-05-19T09:49:26;7.22;;;5.60;;
21727;SDS011;11026;50.560;17.852;2023-05-19T09:52:02;8.10;;;6.03;;
21727;SDS011;11026;50.560;17.852;2023-05-19T09:57:02;10.27;;;6.50;;
21727;SDS011;11026;50.560;17.852;2023-05-19T10:02:04;9.65;;;6.13;;
21727;SDS011;11026;50.560;17.852;2023-05-19T10:04:43;8.57;;;6.57;;
21727;SDS011;11026;50.560;17.852;2023-05-19T10:07:12;8.25;;;6.70;;
21727;SDS011;11026;50.560;17.852;2023-05-19T10:09:41;8.98;;;6.82;;
21727;SDS011;11026;50.560;17.852;2023-05-19T10:12:11;11.00;;;7.20;;
21727;SDS011;11026;50.560;17.852;2023-05-19T10:14:39;8.85;;;6.57;;
21727;SDS011;11026;50.560;17.852;2023-05-19T10:17:13;9.65;;;7.13;;
21727;SDS011;11026;50.560;17.852;2023-05-19T10:19:42;8.80;;;6.88;;
21727;SDS011;11026;50.560;17.852;2023-05-19T10:22:11;9.07;;;6.75;;
21727;SDS011;11026;50.560;17.852;2023-05-19T10:24:39;8.55;;;6.43;;
21727;SDS011;11026;50.560;17.852;2023-05-19T10:27:09;9.20;;;7.00;;
21727;SDS011;11026;50.560;17.852;2023-05-19T10:29:40;10.40;;;6.47;;
21727;SDS011;11026;50.560;17.852;2023-05-19T10:32:15;9.48;;;6.63;;
21727;SDS011;11026;50.560;17.852;2023-05-19T10:35:04;11.43;;;8.77;;
21727;SDS011;11026;50.560;17.852;2023-05-19T10:40:25;14.60;;;8.43;;
21727;SDS011;11026;50.560;17.852;2023-05-19T10:45:52;10.48;;;8.07;;
21727;SDS011;11026;50.560;17.852;2023-05-19T10:48:21;10.35;;;8.25;;
21727;SDS011;11026;50.560;17.852;2023-05-19T10:50:51;14.45;;;9.98;;
21727;SDS011;11026;50.560;17.852;2023-05-19T10:53:20;10.00;;;8.35;;
21727;SDS011;11026;50.560;17.852;2023-05-19T10:55:54;9.25;;;8.13;;
21727;SDS011;11026;50.560;17.852;2023-05-19T10:58:38;9.95;;;7.63;;
21727;SDS011;11026;50.560;17.852;2023-05-19T11:01:12;11.00;;;8.52;;
21727;SDS011;11026;50.560;17.852;2023-05-19T11:09:11;9.43;;;7.32;;
21727;SDS011;11026;50.560;17.852;2023-05-19T11:11:51;10.85;;;7.47;;
21727;SDS011;11026;50.560;17.852;2023-05-19T11:14:21;11.43;;;7.68;;
21727;SDS011;11026;50.560;17.852;2023-05-19T11:16:58;10.40;;;7.80;;
21727;SDS011;11026;50.560;17.852;2023-05-19T11:19:30;11.13;;;8.00;;
21727;SDS011;11026;50.560;17.852;2023-05-19T11:22:09;9.48;;;8.20;;
21727;SDS011;11026;50.560;17.852;2023-05-19T11:24:39;11.50;;;8.18;;
21727;SDS011;11026;50.560;17.852;2023-05-19T11:29:55;9.70;;;7.68;;
21727;SDS011;11026;50.560;17.852;2023-05-19T11:32:25;10.70;;;8.30;;
21727;SDS011;11026;50.560;17.852;2023-05-19T11:34:55;10.05;;;8.23;;
21727;SDS011;11026;50.560;17.852;2023-05-19T11:37:25;12.00;;;8.32;;
21727;SDS011;11026;50.560;17.852;2023-05-19T11:40:00;10.30;;;7.65;;
21727;SDS011;11026;50.560;17.852;2023-05-19T11:42:31;12.05;;;8.55;;
21727;SDS011;11026;50.560;17.852;2023-05-19T11:45:00;12.75;;;8.63;;
21727;SDS011;11026;50.560;17.852;2023-05-19T11:47:29;11.52;;;8.45;;
21727;SDS011;11026;50.560;17.852;2023-05-19T11:50:17;11.27;;;9.65;;
21727;SDS011;11026;50.560;17.852;2023-05-19T11:52:47;12.23;;;8.75;;
21727;SDS011;11026;50.560;17.852;2023-05-19T11:55:18;12.60;;;8.35;;
21727;SDS011;11026;50.560;17.852;2023-05-19T12:00:34;9.85;;;8.30;;
21727;SDS011;11026;50.560;17.852;2023-05-19T12:03:05;11.10;;;8.43;;
21727;SDS011;11026;50.560;17.852;2023-05-19T12:05:39;10.05;;;8.63;;
21727;SDS011;11026;50.560;17.852;2023-05-19T12:08:12;10.73;;;8.60;;
21727;SDS011;11026;50.560;17.852;2023-05-19T12:10:40;9.48;;;8.52;;
21727;SDS011;11026;50.560;17.852;2023-05-19T12:13:08;9.65;;;8.65;;
21727;SDS011;11026;50.560;17.852;2023-05-19T12:15:36;10.15;;;8.05;;
21727;SDS011;11026;50.560;17.852;2023-05-19T12:18:11;8.50;;;7.30;;
21727;SDS011;11026;50.560;17.852;2023-05-19T12:23:06;7.65;;;6.95;;
21727;SDS011;11026;50.560;17.852;2023-05-19T12:25:34;9.05;;;7.63;;
21727;SDS011;11026;50.560;17.852;2023-05-19T12:28:03;9.68;;;6.90;;
21727;SDS011;11026;50.560;17.852;2023-05-19T12:30:31;10.73;;;6.75;;
21727;SDS011;11026;50.560;17.852;2023-05-19T12:33:00;10.68;;;7.20;;
21727;SDS011;11026;50.560;17.852;2023-05-19T12:35:30;8.52;;;7.45;;
21727;SDS011;11026;50.560;17.852;2023-05-19T12:38:03;8.57;;;7.15;;
21727;SDS011;11026;50.560;17.852;2023-05-19T12:40:32;8.85;;;7.63;;
21727;SDS011;11026;50.560;17.852;2023-05-19T12:43:02;10.57;;;7.45;;
21727;SDS011;11026;50.560;17.852;2023-05-19T12:45:38;12.57;;;7.70;;
21727;SDS011;11026;50.560;17.852;2023-05-19T12:48:12;8.88;;;7.75;;
21727;SDS011;11026;50.560;17.852;2023-05-19T12:50:46;8.52;;;7.03;;
21727;SDS011;11026;50.560;17.852;2023-05-19T12:53:14;9.88;;;7.50;;
21727;SDS011;11026;50.560;17.852;2023-05-19T12:55:43;9.98;;;8.07;;
21727;SDS011;11026;50.560;17.852;2023-05-19T12:58:12;8.95;;;8.05;;
21727;SDS011;11026;50.560;17.852;2023-05-19T13:00:44;8.88;;;7.97;;
21727;SDS011;11026;50.560;17.852;2023-05-19T13:03:16;9.55;;;7.75;;
21727;SDS011;11026;50.560;17.852;2023-05-19T13:05:46;10.10;;;8.38;;
21727;SDS011;11026;50.560;17.852;2023-05-19T13:08:16;14.38;;;8.75;;
21727;SDS011;11026;50.560;17.852;2023-05-19T13:10:46;8.73;;;7.63;;
21727;SDS011;11026;50.560;17.852;2023-05-19T13:13:14;10.40;;;8.07;;
21727;SDS011;11026;50.560;17.852;2023-05-19T13:15:48;9.02;;;8.05;;
21727;SDS011;11026;50.560;17.852;2023-05-19T13:18:16;8.73;;;7.55;;
21727;SDS011;11026;50.560;17.852;2023-05-19T13:20:44;9.15;;;7.78;;
21727;SDS011;11026;50.560;17.852;2023-05-19T13:23:12;10.18;;;8.02;;
21727;SDS011;11026;50.560;17.852;2023-05-19T13:25:41;10.20;;;8.55;;
21727;SDS011;11026;50.560;17.852;2023-05-19T13:28:09;10.38;;;7.85;;
21727;SDS011;11026;50.560;17.852;2023-05-19T13:30:38;9.30;;;8.30;;
21727;SDS011;11026;50.560;17.852;2023-05-19T13:33:06;10.02;;;7.68;;
21727;SDS011;11026;50.560;17.852;2023-05-19T13:35:34;10.25;;;8.43;;
21727;SDS011;11026;50.560;17.852;2023-05-19T13:38:06;8.98;;;7.82;;
21727;SDS011;11026;50.560;17.852;2023-05-19T13:40:37;10.75;;;8.40;;
21727;SDS011;11026;50.560;17.852;2023-05-19T13:43:05;8.68;;;7.55;;
21727;SDS011;11026;50.560;17.852;2023-05-19T13:45:33;9.82;;;8.10;;
21727;SDS011;11026;50.560;17.852;2023-05-19T13:48:01;9.75;;;8.60;;
21727;SDS011;11026;50.560;17.852;2023-05-19T13:50:29;8.80;;;7.60;;
21727;SDS011;11026;50.560;17.852;2023-05-19T13:52:58;10.48;;;8.55;;
21727;SDS011;11026;50.560;17.852;2023-05-19T13:55:27;10.32;;;9.23;;
21727;SDS011;11026;50.560;17.852;2023-05-19T13:57:54;11.15;;;8.90;;
21727;SDS011;11026;50.560;17.852;2023-05-19T14:00:22;9.35;;;8.30;;
21727;SDS011;11026;50.560;17.852;2023-05-19T14:02:51;14.55;;;9.75;;
21727;SDS011;11026;50.560;17.852;2023-05-19T14:05:19;9.75;;;8.68;;
21727;SDS011;11026;50.560;17.852;2023-05-19T14:07:47;11.40;;;9.13;;
21727;SDS011;11026;50.560;17.852;2023-05-19T14:10:16;9.50;;;8.25;;
21727;SDS011;11026;50.560;17.852;2023-05-19T14:12:43;10.35;;;8.93;;
21727;SDS011;11026;50.560;17.852;2023-05-19T14:15:32;14.77;;;9.38;;
21727;SDS011;11026;50.560;17.852;2023-05-19T14:18:03;9.27;;;8.33;;
21727;SDS011;11026;50.560;17.852;2023-05-19T14:20:34;9.43;;;8.07;;
21727;SDS011;11026;50.560;17.852;2023-05-19T14:23:02;14.85;;;8.63;;
21727;SDS011;11026;50.560;17.852;2023-05-19T14:25:29;10.98;;;9.05;;
21727;SDS011;11026;50.560;17.852;2023-05-19T14:27:57;9.85;;;8.38;;
21727;SDS011;11026;50.560;17.852;2023-05-19T14:30:24;10.27;;;8.18;;
21727;SDS011;11026;50.560;17.852;2023-05-19T14:32:52;12.43;;;9.18;;
21727;SDS011;11026;50.560;17.852;2023-05-19T14:35:20;10.27;;;8.50;;
21727;SDS011;11026;50.560;17.852;2023-05-19T14:37:49;9.75;;;8.57;;
21727;SDS011;11026;50.560;17.852;2023-05-19T14:40:17;10.27;;;8.52;;
21727;SDS011;11026;50.560;17.852;2023-05-19T14:42:45;11.23;;;8.57;;
21727;SDS011;11026;50.560;17.852;2023-05-19T14:45:13;10.05;;;8.57;;
21727;SDS011;11026;50.560;17.852;2023-05-19T14:47:47;13.25;;;8.60;;
21727;SDS011;11026;50.560;17.852;2023-05-19T14:50:14;11.77;;;9.20;;
21727;SDS011;11026;50.560;17.852;2023-05-19T14:52:42;12.35;;;9.80;;
21727;SDS011;11026;50.560;17.852;2023-05-19T14:55:09;12.27;;;9.35;;
21727;SDS011;11026;50.560;17.852;2023-05-19T14:57:37;10.40;;;8.43;;
21727;SDS011;11026;50.560;17.852;2023-05-19T15:00:04;11.95;;;8.55;;
21727;SDS011;11026;50.560;17.852;2023-05-19T15:02:32;11.45;;;8.35;;
21727;SDS011;11026;50.560;17.852;2023-05-19T15:05:00;10.77;;;8.68;;
21727;SDS011;11026;50.560;17.852;2023-05-19T15:07:27;11.48;;;9.90;;
21727;SDS011;11026;50.560;17.852;2023-05-19T15:09:56;15.55;;;12.35;;
21727;SDS011;11026;50.560;17.852;2023-05-19T15:12:23;14.10;;;11.23;;
21727;SDS011;11026;50.560;17.852;2023-05-19T15:14:51;12.43;;;10.55;;
21727;SDS011;11026;50.560;17.852;2023-05-19T15:17:19;12.77;;;10.27;;
21727;SDS011;11026;50.560;17.852;2023-05-19T15:19:49;24.52;;;17.98;;
21727;SDS011;11026;50.560;17.852;2023-05-19T15:22:16;30.42;;;22.92;;
21727;SDS011;11026;50.560;17.852;2023-05-19T15:24:45;24.30;;;19.92;;
21727;SDS011;11026;50.560;17.852;2023-05-19T15:27:12;13.02;;;9.55;;
21727;SDS011;11026;50.560;17.852;2023-05-19T15:29:40;13.23;;;10.55;;
21727;SDS011;11026;50.560;17.852;2023-05-19T15:32:07;15.48;;;11.73;;
21727;SDS011;11026;50.560;17.852;2023-05-19T15:34:35;12.30;;;10.98;;
21727;SDS011;11026;50.560;17.852;2023-05-19T15:37:02;16.50;;;11.88;;
21727;SDS011;11026;50.560;17.852;2023-05-19T15:39:30;16.65;;;11.55;;
21727;SDS011;11026;50.560;17.852;2023-05-19T15:41:59;11.82;;;9.20;;